Time;durP1;ratioP1;P1;durP2;ratioP2;P2;SDS_P1;SDS_P2;PMS_P1;PMS_P2;Temp;Humidity;BMP_temperature;BMP_pressure;BME280_temperature;BME280_humidity;BME280_pressure;Samples;Min_cycle;Max_cycle;Signal;HPM_P1;HPM_P2
2020/12/08 10:06:15;;;;;;;2.67;1.70;;;22.90;39.10;;;;;;5088500;28;20333;-76
2020/12/08 10:08:41;;;;;;;4.57;2.43;;;23.00;39.40;;;;;;5087775;28;20445;-78
2020/12/08 10:11:08;;;;;;;2.07;1.50;;;22.90;43.50;;;;;;5088305;28;20579;-77
2020/12/08 10:13:34;;;;;;;3.50;2.10;;;22.80;42.40;;;;;;5088587;28;20571;-75
2020/12/08 10:16:00;;;;;;;2.67;1.83;;;23.00;42.80;;;;;;5087553;28;20414;-83
2020/12/08 10:18:25;;;;;;;3.83;2.43;;;23.20;42.80;;;;;;5070105;28;20223;-80
2020/12/08 10:20:51;;;;;;;2.73;1.60;;;23.40;42.40;;;;;;5088408;28;20175;-75
2020/12/08 10:23:16;;;;;;;2.30;2.03;;;23.60;42.60;;;;;;5088100;28;20692;-78
2020/12/08 10:25:42;;;;;;;2.60;1.50;;;23.70;42.80;;;;;;5088101;28;20720;-75
2020/12/08 10:28:08;;;;;;;2.73;1.73;;;23.80;42.90;;;;;;5069761;28;20180;-75
2020/12/08 10:30:33;;;;;;;2.40;1.57;;;24.20;42.70;;;;;;5087204;28;20186;-73
2020/12/08 10:32:59;;;;;;;3.60;2.23;;;24.40;41.80;;;;;;5087709;28;20177;-72
2020/12/08 10:35:25;;;;;;;4.10;1.90;;;24.60;41.70;;;;;;5087677;28;20189;-69
2020/12/08 10:37:51;;;;;;;2.13;1.60;;;24.90;40.70;;;;;;5087120;28;20511;-69
2020/12/08 10:40:17;;;;;;;2.30;1.93;;;25.10;39.50;;;;;;5088104;28;20193;-68
2020/12/08 10:42:42;;;;;;;2.97;1.97;;;25.20;40.90;;;;;;5069921;28;20484;-69
2020/12/08 10:45:08;;;;;;;2.33;2.13;;;25.40;40.70;;;;;;5086731;28;20214;-68
2020/12/08 10:47:34;;;;;;;2.83;1.60;;;25.50;40.50;;;;;;5087482;28;20176;-67
2020/12/08 10:50:00;;;;;;;2.27;1.80;;;25.50;40.40;;;;;;5069271;28;20431;-69
2020/12/08 10:52:29;;;;;;;2.37;2.10;;;25.40;39.60;;;;;;5068890;28;20420;-67
2020/12/08 10:54:54;;;;;;;1.80;1.47;;;25.50;40.40;;;;;;5086909;28;20182;-69
2020/12/08 10:57:20;;;;;;;2.40;2.03;;;25.60;40.10;;;;;;5086592;28;20409;-69
2020/12/08 10:59:46;;;;;;;2.17;1.57;;;25.60;39.90;;;;;;5066248;28;20188;-69
2020/12/08 11:02:11;;;;;;;1.70;1.60;;;25.60;40.00;;;;;;5067112;28;20416;-69
2020/12/08 11:04:37;;;;;;;2.30;1.70;;;25.70;40.20;;;;;;5066286;28;20266;-72
2020/12/08 11:07:03;;;;;;;2.77;1.63;;;25.70;40.00;;;;;;5066408;28;20173;-72
2020/12/08 11:09:28;;;;;;;2.33;1.50;;;25.60;40.00;;;;;;5067015;28;20178;-72
2020/12/08 11:11:54;;;;;;;1.97;1.67;;;25.70;40.10;;;;;;5066985;28;20586;-72
2020/12/08 11:14:20;;;;;;;2.07;1.83;;;25.90;39.80;;;;;;5048101;28;20554;-74
2020/12/08 11:16:46;;;;;;;2.03;1.60;;;25.90;39.80;;;;;;5040086;28;20590;-73
2020/12/08 11:19:11;;;;;;;1.60;1.50;;;25.90;39.60;;;;;;5053130;28;20426;-72
2020/12/08 11:21:39;;;;;;;1.80;1.63;;;25.90;39.60;;;;;;5035409;28;20536;-74
2020/12/08 11:24:07;;;;;;;1.70;1.53;;;25.90;39.80;;;;;;5034549;28;20574;-70
2020/12/08 11:26:33;;;;;;;3.07;2.33;;;25.80;39.70;;;;;;5053284;28;20967;-71
2020/12/08 11:28:59;;;;;;;1.93;1.40;;;25.80;39.80;;;;;;5052882;28;20445;-71
2020/12/08 11:31:25;;;;;;;2.07;1.63;;;25.80;40.00;;;;;;5052708;28;20421;-72
2020/12/08 11:33:50;;;;;;;4.53;1.93;;;25.80;39.70;;;;;;5052741;28;20187;-72
2020/12/08 11:36:16;;;;;;;1.80;1.53;;;25.90;39.60;;;;;;5034892;28;20274;-73
2020/12/08 11:38:43;;;;;;;2.70;1.97;;;25.90;39.50;;;;;;5052448;28;20410;-76
2020/12/08 11:41:08;;;;;;;2.63;1.70;;;26.00;39.50;;;;;;5053024;28;20900;-73
2020/12/08 11:43:36;;;;;;;2.23;1.70;;;26.10;39.50;;;;;;5053062;28;20413;-70
2020/12/08 11:46:03;;;;;;;1.53;1.43;;;26.20;39.40;;;;;;5052183;28;20561;-72
2020/12/08 11:48:29;;;;;;;1.80;1.70;;;26.10;39.30;;;;;;5052857;28;20904;-72
2020/12/08 11:50:54;;;;;;;2.10;1.70;;;26.10;39.40;;;;;;5054121;28;20421;-72
2020/12/08 11:53:20;;;;;;;1.67;1.57;;;26.10;38.80;;;;;;5034741;28;20665;-73
2020/12/08 11:55:47;;;;;;;2.03;1.73;;;26.20;39.40;;;;;;5052420;28;20463;-72
2020/12/08 11:58:13;;;;;;;1.53;1.43;;;26.20;39.30;;;;;;5052300;28;20940;-71
2020/12/08 12:00:39;;;;;;;1.53;1.33;;;26.20;39.30;;;;;;5051747;28;20421;-72
2020/12/08 12:03:04;;;;;;;2.20;1.60;;;26.30;39.20;;;;;;5052509;28;20420;-73
2020/12/08 12:05:30;;;;;;;3.37;1.60;;;26.20;39.10;;;;;;5052425;28;20240;-72
2020/12/08 12:07:56;;;;;;;2.27;1.90;;;26.20;39.30;;;;;;5052045;28;20555;-71
2020/12/08 12:10:21;;;;;;;4.70;1.80;;;26.10;38.80;;;;;;5052032;28;20258;-71
2020/12/08 12:12:47;;;;;;;1.90;1.80;;;26.00;39.40;;;;;;5052446;28;20192;-74
2020/12/08 12:15:13;;;;;;;2.53;2.20;;;26.10;39.40;;;;;;5051378;28;20246;-71
2020/12/08 12:17:38;;;;;;;1.90;1.80;;;26.20;39.70;;;;;;5052211;28;20640;-71
2020/12/08 12:20:07;;;;;;;2.80;2.20;;;26.20;39.20;;;;;;5034002;28;20769;-73
2020/12/08 12:22:33;;;;;;;3.00;1.97;;;26.10;39.30;;;;;;5051948;28;20175;-73
2020/12/08 12:24:58;;;;;;;6.23;2.00;;;26.00;39.60;;;;;;5051910;28;20997;-71
2020/12/08 12:27:24;;;;;;;2.33;2.03;;;26.00;39.60;;;;;;5051684;28;20505;-73
2020/12/08 12:29:50;;;;;;;4.60;2.47;;;26.00;38.90;;;;;;5051242;28;20626;-69
2020/12/08 12:32:17;;;;;;;2.50;2.30;;;26.10;39.50;;;;;;5052220;28;20177;-70
2020/12/08 12:34:42;;;;;;;4.20;2.50;;;26.20;39.30;;;;;;5052050;28;20226;-72
2020/12/08 12:37:08;;;;;;;2.30;1.90;;;26.20;39.10;;;;;;5051523;28;20970;-69
2020/12/08 12:39:34;;;;;;;3.00;2.00;;;26.20;38.80;;;;;;5051855;28;20184;-70
2020/12/08 12:42:01;;;;;;;3.63;2.00;;;26.30;39.10;;;;;;5052009;28;20532;-71
2020/12/08 12:44:27;;;;;;;2.63;2.23;;;26.30;38.80;;;;;;5049891;28;20307;-71
2020/12/08 12:46:53;;;;;;;3.87;2.53;;;26.40;38.80;;;;;;5047763;28;20842;-71
2020/12/08 12:49:19;;;;;;;3.63;2.73;;;26.50;38.80;;;;;;5050445;28;20252;-71
2020/12/08 12:51:44;;;;;;;3.13;2.60;;;26.40;38.80;;;;;;5050399;28;20529;-71
2020/12/08 12:54:10;;;;;;;3.17;2.50;;;26.40;38.80;;;;;;5050226;28;20196;-71
2020/12/08 12:56:36;;;;;;;2.33;2.10;;;26.40;39.10;;;;;;5057260;28;20561;-71
2020/12/08 12:59:01;;;;;;;2.90;2.60;;;26.30;39.10;;;;;;5049866;28;20969;-71
2020/12/08 13:01:27;;;;;;;2.67;2.27;;;26.30;39.00;;;;;;5050079;28;20235;-71
2020/12/08 13:03:52;;;;;;;3.50;2.20;;;26.30;39.10;;;;;;5032144;28;20761;-72
2020/12/08 13:06:18;;;;;;;4.53;2.70;;;26.20;39.30;;;;;;5051044;28;20181;-72
2020/12/08 13:08:44;;;;;;;2.60;2.40;;;26.10;39.50;;;;;;5051387;28;20177;-69
2020/12/08 13:11:11;;;;;;;3.23;2.93;;;26.10;39.40;;;;;;5051300;28;20183;-72
2020/12/08 13:13:37;;;;;;;4.43;3.10;;;26.10;39.40;;;;;;5050827;28;20230;-71
2020/12/08 13:16:05;;;;;;;2.63;2.43;;;26.10;39.00;;;;;;5050616;28;20418;-73
2020/12/08 13:18:31;;;;;;;3.00;2.37;;;26.10;38.70;;;;;;5051234;28;20418;-74
2020/12/08 13:20:57;;;;;;;2.70;2.50;;;26.30;39.10;;;;;;5050687;28;20409;-72
2020/12/08 13:23:24;;;;;;;2.27;2.10;;;26.40;39.10;;;;;;5051306;28;20416;-70
2020/12/08 13:25:50;;;;;;;3.07;2.50;;;26.50;39.00;;;;;;5050762;28;20548;-70
2020/12/08 13:28:16;;;;;;;4.00;3.03;;;26.50;38.90;;;;;;5050491;28;20406;-71
2020/12/08 13:30:42;;;;;;;5.20;3.30;;;26.60;38.70;;;;;;5051241;28;20521;-69
2020/12/08 13:33:07;;;;;;;3.33;2.47;;;26.70;38.80;;;;;;5050948;28;20185;-71
2020/12/08 13:35:33;;;;;;;3.87;2.53;;;26.60;38.90;;;;;;5049891;28;20189;-72
2020/12/08 13:37:59;;;;;;;4.03;2.60;;;26.50;38.90;;;;;;5049100;28;20185;-74
2020/12/08 13:40:24;;;;;;;2.80;2.60;;;26.60;38.70;;;;;;5048720;28;20200;-70
2020/12/08 13:42:50;;;;;;;3.10;2.70;;;26.70;38.70;;;;;;5048484;28;20184;-73
2020/12/08 13:45:16;;;;;;;3.67;2.70;;;26.60;38.70;;;;;;5031028;28;20218;-72
2020/12/08 13:47:42;;;;;;;4.70;3.50;;;26.60;38.80;;;;;;5049266;28;20173;-72
2020/12/08 13:50:08;;;;;;;3.97;3.20;;;26.50;38.90;;;;;;5049009;28;20210;-75
2020/12/08 13:52:34;;;;;;;2.80;2.50;;;26.60;39.00;;;;;;5050433;28;20463;-74
2020/12/08 13:55:00;;;;;;;4.00;3.23;;;26.60;39.00;;;;;;5050775;28;20414;-73
2020/12/08 13:57:26;;;;;;;2.73;2.53;;;26.50;38.80;;;;;;5049864;28;20179;-74
2020/12/08 13:59:51;;;;;;;3.20;2.90;;;26.50;38.90;;;;;;5050638;28;20505;-73
2020/12/08 14:02:21;;;;;;;4.20;3.80;;;26.50;38.90;;;;;;5032542;28;20717;-72
2020/12/08 14:04:46;;;;;;;4.23;2.97;;;26.30;38.40;;;;;;5049597;28;20256;-73
2020/12/08 14:07:14;;;;;;;5.43;3.67;;;26.20;39.70;;;;;;5050474;28;20533;-72
2020/12/08 14:09:39;;;;;;;3.73;3.43;;;26.00;38.80;;;;;;5050447;28;20217;-72
2020/12/08 14:12:05;;;;;;;3.07;2.77;;;25.90;39.10;;;;;;5049579;28;20507;-69
2020/12/08 14:14:31;;;;;;;3.63;2.50;;;25.80;39.70;;;;;;5050073;28;20188;-70
2020/12/08 14:17:00;;;;;;;2.90;2.60;;;25.80;39.70;;;;;;5050273;28;20213;-71
2020/12/08 14:19:26;;;;;;;5.23;3.10;;;25.80;39.80;;;;;;5049887;28;20180;-69
2020/12/08 14:21:53;;;;;;;3.13;2.83;;;25.90;39.60;;;;;;5050220;28;21313;-71
2020/12/08 14:24:23;;;;;;;4.03;2.90;;;25.90;39.70;;;;;;5050561;28;20509;-75
2020/12/08 14:26:50;;;;;;;3.23;2.93;;;26.00;39.60;;;;;;5050153;28;20426;-74
2020/12/08 14:29:16;;;;;;;3.67;2.93;;;26.10;39.30;;;;;;5050186;28;20432;-71
2020/12/08 14:31:41;;;;;;;2.77;2.30;;;26.10;39.40;;;;;;5033013;28;20411;-70
2020/12/08 14:34:07;;;;;;;3.27;2.97;;;26.20;39.30;;;;;;5049749;28;20212;-72
2020/12/08 14:36:33;;;;;;;5.20;3.47;;;26.30;38.90;;;;;;5049946;28;20273;-72
2020/12/08 14:39:00;;;;;;;5.20;3.67;;;26.30;38.40;;;;;;5050055;28;20243;-73
2020/12/08 14:41:26;;;;;;;4.63;4.03;;;26.30;37.90;;;;;;5031822;28;20936;-72
2020/12/08 14:43:52;;;;;;;4.83;4.43;;;26.10;37.80;;;;;;5049766;28;20416;-72
2020/12/08 14:46:18;;;;;;;3.90;3.60;;;26.00;37.70;;;;;;5050241;28;20470;-72
2020/12/08 14:48:44;;;;;;;4.60;4.23;;;25.80;37.60;;;;;;5050040;28;20420;-72
2020/12/08 14:51:10;;;;;;;5.33;4.80;;;25.60;37.60;;;;;;5050417;28;20188;-72
2020/12/08 14:53:37;;;;;;;4.87;4.33;;;25.40;37.70;;;;;;5054130;28;20268;-72
2020/12/08 14:56:03;;;;;;;5.47;4.40;;;25.20;37.70;;;;;;5035821;28;20439;-72
2020/12/08 14:58:30;;;;;;;5.60;5.10;;;25.00;37.80;;;;;;5035089;28;20440;-72
2020/12/08 15:00:56;;;;;;;5.27;4.80;;;24.90;37.90;;;;;;5035908;28;20507;-73
2020/12/08 15:03:22;;;;;;;5.70;5.20;;;24.70;38.10;;;;;;5053527;28;20410;-73
2020/12/08 15:05:48;;;;;;;20.23;5.27;;;24.60;38.10;;;;;;5034837;28;20534;-73
2020/12/08 15:08:14;;;;;;;5.97;3.60;;;24.60;38.90;;;;;;5033048;28;20178;-72
2020/12/08 15:10:39;;;;;;;5.90;3.80;;;24.40;40.80;;;;;;5029184;28;20250;-71
2020/12/08 15:13:05;;;;;;;3.93;3.27;;;24.50;41.40;;;;;;5030469;28;20174;-70
2020/12/08 15:15:31;;;;;;;6.10;3.60;;;24.80;41.30;;;;;;5031537;28;20201;-72
2020/12/08 15:17:57;;;;;;;7.03;3.40;;;25.00;41.40;;;;;;5030392;28;20706;-74
2020/12/08 15:20:23;;;;;;;5.73;4.00;;;25.20;40.60;;;;;;5030698;28;20453;-72
2020/12/08 15:22:48;;;;;;;3.27;2.90;;;25.40;40.20;;;;;;5029994;28;20175;-70
2020/12/08 15:25:14;;;;;;;3.60;3.27;;;25.70;40.00;;;;;;5030984;28;20210;-71
2020/12/08 15:27:40;;;;;;;5.50;3.93;;;25.90;39.90;;;;;;5030782;28;20253;-76
2020/12/08 15:30:05;;;;;;;6.70;6.10;;;26.00;39.60;;;;;;5029892;28;20182;-77
2020/12/08 15:32:31;;;;;;;6.10;5.37;;;26.20;39.40;;;;;;5031272;28;20174;-76
2020/12/08 15:34:57;;;;;;;5.17;4.47;;;26.30;39.40;;;;;;5030281;28;20607;-74
2020/12/08 15:37:23;;;;;;;5.40;4.90;;;26.60;39.20;;;;;;5031234;28;20653;-77
2020/12/08 15:39:49;;;;;;;4.87;4.47;;;26.80;39.00;;;;;;5013201;28;20456;-74
2020/12/08 15:42:15;;;;;;;5.40;4.90;;;27.00;38.70;;;;;;5030580;28;20171;-75
2020/12/08 15:44:41;;;;;;;7.07;6.33;;;27.10;38.60;;;;;;5030427;28;20510;-73
2020/12/08 15:47:10;;;;;;;5.77;5.23;;;27.30;38.30;;;;;;5030809;28;20427;-72
2020/12/08 15:49:36;;;;;;;6.67;5.80;;;27.40;38.30;;;;;;5030854;28;20415;-72
2020/12/08 15:52:01;;;;;;;5.93;5.30;;;27.50;38.00;;;;;;5030812;28;20427;-72
2020/12/08 15:54:27;;;;;;;7.53;5.70;;;27.50;38.00;;;;;;5030096;28;20186;-73
2020/12/08 15:56:53;;;;;;;7.90;5.33;;;27.60;38.00;;;;;;5029034;28;20181;-76
2020/12/08 15:59:18;;;;;;;6.23;5.20;;;27.60;38.10;;;;;;5030679;28;20558;-74
2020/12/08 16:01:45;;;;;;;7.97;4.73;;;27.60;37.90;;;;;;5030744;28;20171;-71
2020/12/08 16:04:11;;;;;;;6.37;4.97;;;27.40;38.30;;;;;;5029631;28;20248;-72
2020/12/08 16:06:38;;;;;;;6.07;5.40;;;27.20;38.90;;;;;;5029471;28;20473;-76
2020/12/08 16:09:04;;;;;;;6.30;5.57;;;27.10;38.80;;;;;;5029278;28;20515;-75
2020/12/08 16:11:29;;;;;;;5.77;5.27;;;27.30;38.50;;;;;;5029926;28;20419;-73
2020/12/08 16:13:55;;;;;;;5.60;5.10;;;27.30;38.50;;;;;;5029418;28;20547;-73
2020/12/08 16:16:21;;;;;;;8.47;5.60;;;27.40;38.40;;;;;;5013821;28;20278;-72
2020/12/08 16:18:47;;;;;;;11.90;5.93;;;27.50;38.20;;;;;;5030022;28;20520;-76
2020/12/08 16:21:13;;;;;;;7.93;5.00;;;27.60;38.50;;;;;;5012505;28;20720;-75
2020/12/08 16:23:39;;;;;;;7.93;5.30;;;27.60;38.20;;;;;;5030002;28;20194;-76
2020/12/08 16:26:09;;;;;;;7.80;5.37;;;27.40;38.30;;;;;;5029597;28;20494;-76
2020/12/08 16:28:35;;;;;;;6.50;5.70;;;27.10;38.80;;;;;;5030227;28;20442;-77
2020/12/08 16:31:03;;;;;;;10.93;5.63;;;27.00;39.00;;;;;;5029284;28;20510;-79
2020/12/08 16:33:30;;;;;;;5.00;4.50;;;26.80;39.00;;;;;;5027923;28;20418;-75
2020/12/08 16:35:56;;;;;;;7.47;5.37;;;26.60;39.30;;;;;;5030322;28;20518;-77
2020/12/08 16:38:26;;;;;;;6.23;5.47;;;26.50;40.00;;;;;;5029363;28;20546;-76
2020/12/08 16:40:56;;;;;;;6.10;5.50;;;26.30;40.00;;;;;;5028992;28;20248;-75
2020/12/08 16:43:22;;;;;;;7.80;6.70;;;26.10;40.60;;;;;;5029624;28;20412;-76
2020/12/08 16:45:50;;;;;;;9.50;7.23;;;25.90;40.60;;;;;;5012130;28;20505;-77
2020/12/08 16:48:15;;;;;;;7.50;6.70;;;25.90;40.80;;;;;;5028067;28;20414;-74
2020/12/08 16:50:41;;;;;;;10.23;8.13;;;25.80;40.90;;;;;;5029844;28;20438;-71
2020/12/08 16:53:07;;;;;;;6.60;5.73;;;25.70;40.80;;;;;;5029564;28;20550;-73
2020/12/08 16:55:32;;;;;;;10.10;7.50;;;25.80;40.20;;;;;;5029212;28;20181;-74
2020/12/08 16:57:58;;;;;;;16.37;6.43;;;25.80;40.20;;;;;;5011775;28;20243;-73
2020/12/08 17:00:24;;;;;;;7.80;6.80;;;25.80;40.80;;;;;;5029739;28;20652;-74
2020/12/08 17:02:50;;;;;;;8.70;6.10;;;25.90;40.30;;;;;;5011610;28;20181;-73
2020/12/08 17:05:16;;;;;;;8.97;7.00;;;26.10;39.60;;;;;;5029034;28;20473;-74
2020/12/08 17:07:43;;;;;;;9.23;8.33;;;26.10;40.50;;;;;;5029005;28;20238;-74
2020/12/08 17:10:10;;;;;;;9.00;8.10;;;26.00;39.70;;;;;;5030165;28;20415;-74
2020/12/08 17:12:36;;;;;;;6.73;6.03;;;26.00;40.00;;;;;;5029344;28;20415;-71
2020/12/08 17:15:04;;;;;;;7.13;5.57;;;26.00;40.30;;;;;;5028257;28;20503;-71
2020/12/08 17:17:29;;;;;;;9.23;6.50;;;26.10;40.30;;;;;;5029254;28;20419;-73
2020/12/08 17:19:55;;;;;;;10.07;7.00;;;26.30;40.40;;;;;;5028496;28;20786;-74
2020/12/08 17:22:20;;;;;;;8.57;6.13;;;26.50;40.30;;;;;;5029629;28;20257;-75
2020/12/08 17:24:46;;;;;;;10.07;6.30;;;26.60;39.90;;;;;;5029061;28;20293;-76
2020/12/08 17:27:12;;;;;;;8.77;6.83;;;26.80;39.70;;;;;;5028378;28;20186;-75
2020/12/08 17:29:37;;;;;;;10.67;6.47;;;26.80;39.50;;;;;;5029734;28;20186;-75
2020/12/08 17:32:03;;;;;;;8.37;7.10;;;26.90;39.50;;;;;;5028692;28;20645;-76
2020/12/08 17:34:29;;;;;;;7.90;7.10;;;27.00;39.50;;;;;;5028874;28;20182;-75
2020/12/08 17:36:55;;;;;;;10.67;6.80;;;27.10;39.50;;;;;;5029004;28;21073;-76
2020/12/08 17:39:22;;;;;;;7.87;6.20;;;27.20;39.20;;;;;;5028882;28;20420;-76
2020/12/08 17:41:48;;;;;;;6.97;6.20;;;27.30;39.40;;;;;;5011602;28;20195;-70
2020/12/08 17:44:14;;;;;;;10.23;7.30;;;27.20;39.00;;;;;;5028878;28;20439;-72
2020/12/08 17:46:40;;;;;;;8.10;7.30;;;26.90;39.70;;;;;;5028004;28;20416;-74
2020/12/08 17:49:07;;;;;;;10.60;9.20;;;26.60;39.60;;;;;;5028015;28;20411;-72
2020/12/08 17:51:36;;;;;;;12.57;8.40;;;26.50;39.50;;;;;;5011094;28;20420;-73
2020/12/08 17:54:04;;;;;;;8.10;7.30;;;26.30;39.60;;;;;;5010759;28;20433;-74
2020/12/08 17:56:29;;;;;;;17.67;9.03;;;26.20;40.30;;;;;;5028684;28;20417;-72
2020/12/08 17:58:55;;;;;;;10.63;7.60;;;26.10;40.60;;;;;;5010988;28;20438;-71
2020/12/08 18:02:28;;;;;;;13.20;10.47;;;25.90;40.20;;;;;;5147472;27;21129;-72
2020/12/08 18:04:54;;;;;;;12.43;11.10;;;25.80;39.30;;;;;;5127276;27;20426;-73
2020/12/08 18:07:19;;;;;;;12.17;10.87;;;25.70;39.20;;;;;;5126838;27;20203;-72
2020/12/08 18:09:45;;;;;;;10.57;9.43;;;25.50;39.00;;;;;;5126998;27;20217;-72
2020/12/08 18:12:10;;;;;;;11.33;10.17;;;25.40;39.60;;;;;;5125826;28;21032;-72
2020/12/08 18:14:36;;;;;;;11.77;10.67;;;25.30;38.80;;;;;;5127192;27;20173;-71
2020/12/08 18:17:02;;;;;;;11.10;10.00;;;25.10;38.70;;;;;;5125329;27;20241;-72
2020/12/08 18:19:28;;;;;;;11.83;10.60;;;25.00;38.90;;;;;;5126669;27;20647;-73
2020/12/08 18:21:54;;;;;;;11.60;10.00;;;24.90;39.00;;;;;;5125165;28;20474;-71
2020/12/08 18:24:19;;;;;;;11.90;10.63;;;24.80;39.00;;;;;;5125667;28;20185;-72
2020/12/08 18:26:45;;;;;;;12.13;9.90;;;24.60;38.90;;;;;;5125317;28;20186;-72
2020/12/08 18:29:13;;;;;;;13.27;10.37;;;24.50;39.00;;;;;;5126517;28;20182;-72
2020/12/08 18:31:39;;;;;;;10.90;9.87;;;24.40;39.00;;;;;;5125440;28;20502;-73
2020/12/08 18:34:04;;;;;;;13.80;10.87;;;24.30;39.00;;;;;;5126785;27;20900;-72
2020/12/08 18:36:30;;;;;;;12.40;11.23;;;24.20;39.10;;;;;;5125692;28;21182;-71
2020/12/08 18:38:56;;;;;;;12.33;11.10;;;24.10;39.10;;;;;;5126291;28;20193;-72
2020/12/08 18:41:21;;;;;;;11.20;10.20;;;24.00;39.10;;;;;;5125968;27;20283;-71
2020/12/08 18:43:47;;;;;;;12.03;10.97;;;23.90;39.00;;;;;;5126318;28;20655;-71
2020/12/08 18:46:13;;;;;;;12.60;11.40;;;23.90;38.90;;;;;;5126156;27;20184;-70
2020/12/08 18:48:39;;;;;;;11.67;10.57;;;23.80;39.10;;;;;;5125209;27;20183;-70
2020/12/08 18:51:05;;;;;;;11.87;10.77;;;23.80;39.40;;;;;;5126277;27;20386;-70
2020/12/08 18:53:31;;;;;;;12.00;10.90;;;23.70;39.20;;;;;;5124597;28;20760;-70
2020/12/08 18:55:56;;;;;;;13.13;11.77;;;23.70;39.10;;;;;;5125414;27;20609;-70
2020/12/08 18:58:22;;;;;;;20.57;16.60;;;23.70;39.10;;;;;;5113740;27;20216;-70
2020/12/08 19:00:48;;;;;;;19.40;16.77;;;23.60;39.10;;;;;;5104758;28;20329;-70
2020/12/08 19:03:13;;;;;;;23.10;16.03;;;23.60;40.10;;;;;;5103833;28;20197;-70
2020/12/08 19:05:39;;;;;;;19.80;15.93;;;23.50;40.40;;;;;;5103131;28;20173;-70
2020/12/08 19:08:06;;;;;;;20.60;15.90;;;23.50;40.20;;;;;;5103641;28;20250;-71
2020/12/08 19:10:32;;;;;;;18.47;16.57;;;23.40;40.40;;;;;;5105366;28;20174;-71
2020/12/08 19:12:58;;;;;;;19.87;17.17;;;23.30;40.20;;;;;;5096722;28;20417;-73
2020/12/08 19:15:26;;;;;;;20.60;17.40;;;23.30;40.00;;;;;;5091708;28;20174;-70
2020/12/08 19:17:52;;;;;;;21.10;17.70;;;23.30;39.70;;;;;;5090929;28;20933;-72
2020/12/08 19:20:19;;;;;;;21.73;16.60;;;23.20;39.60;;;;;;5090397;28;20425;-71
2020/12/08 19:22:46;;;;;;;20.63;18.20;;;23.10;39.60;;;;;;5090025;28;20235;-72
2020/12/08 19:25:12;;;;;;;20.33;17.97;;;23.10;39.50;;;;;;5089981;28;20425;-73
2020/12/08 19:27:38;;;;;;;18.90;16.90;;;23.00;39.40;;;;;;5089987;28;20418;-71
2020/12/08 19:30:05;;;;;;;21.23;17.90;;;23.00;39.30;;;;;;5091466;28;20819;-70
2020/12/08 19:32:31;;;;;;;18.53;16.60;;;22.90;39.30;;;;;;5091617;28;20183;-72
2020/12/08 19:34:57;;;;;;;20.03;18.03;;;22.80;39.90;;;;;;5089910;28;20421;-71
2020/12/08 19:37:23;;;;;;;18.97;16.90;;;22.80;39.20;;;;;;5091322;28;20658;-71
2020/12/08 19:39:48;;;;;;;18.77;16.13;;;22.70;39.00;;;;;;5090590;28;20173;-71
2020/12/08 19:42:16;;;;;;;18.83;15.17;;;22.70;38.90;;;;;;5091262;28;20773;-70
2020/12/08 19:44:44;;;;;;;16.93;15.10;;;22.60;38.90;;;;;;5091280;28;20176;-71
2020/12/08 19:47:10;;;;;;;15.80;14.23;;;22.50;38.90;;;;;;5091322;28;20495;-71
2020/12/08 19:49:37;;;;;;;14.57;13.07;;;22.40;38.80;;;;;;5090977;28;20907;-71
2020/12/08 19:52:05;;;;;;;16.13;14.60;;;22.40;38.90;;;;;;5089822;28;20448;-71
2020/12/08 19:54:31;;;;;;;14.63;13.10;;;22.30;38.80;;;;;;5091200;28;20914;-72
2020/12/08 19:56:56;;;;;;;15.17;13.60;;;22.30;38.90;;;;;;5093044;28;20405;-73
2020/12/08 19:59:22;;;;;;;14.47;12.90;;;22.20;39.30;;;;;;5092399;28;20744;-71
2020/12/08 20:01:48;;;;;;;15.03;13.50;;;22.20;39.20;;;;;;5092498;28;20231;-71
2020/12/08 20:04:14;;;;;;;15.20;13.67;;;22.10;39.20;;;;;;5092714;28;20183;-73
2020/12/08 20:06:39;;;;;;;14.50;13.07;;;22.10;39.20;;;;;;5090786;28;20523;-72
2020/12/08 20:09:06;;;;;;;13.80;12.30;;;22.10;39.30;;;;;;5092097;28;20177;-73
2020/12/08 20:11:31;;;;;;;14.80;13.20;;;22.00;39.30;;;;;;5090857;28;20237;-72
2020/12/08 20:13:57;;;;;;;14.20;12.90;;;22.00;39.30;;;;;;5090977;28;20831;-73
2020/12/08 20:16:23;;;;;;;13.33;11.93;;;22.00;39.30;;;;;;5092175;28;20980;-73
2020/12/08 20:18:49;;;;;;;13.03;11.73;;;21.90;39.20;;;;;;5090922;28;20227;-72
2020/12/08 20:21:17;;;;;;;13.47;12.17;;;21.90;39.20;;;;;;5091959;28;20456;-72
2020/12/08 20:23:43;;;;;;;13.70;12.30;;;21.80;39.20;;;;;;5091254;28;20421;-72
2020/12/08 20:26:09;;;;;;;14.70;11.73;;;21.80;39.30;;;;;;5091831;28;20496;-71
2020/12/08 20:28:35;;;;;;;13.30;11.97;;;21.80;39.30;;;;;;5088330;28;20847;-72
2020/12/08 20:31:01;;;;;;;13.53;11.50;;;21.70;39.20;;;;;;5081998;28;20185;-73
2020/12/08 20:33:26;;;;;;;13.23;11.67;;;21.70;39.10;;;;;;5081723;28;20468;-73
2020/12/08 20:35:53;;;;;;;12.53;11.33;;;21.60;39.10;;;;;;5076200;28;20675;-71
2020/12/08 20:38:19;;;;;;;12.83;11.63;;;21.60;39.10;;;;;;5103572;28;20268;-72
2020/12/08 20:40:44;;;;;;;11.10;10.10;;;21.60;39.10;;;;;;5110611;28;20972;-73
2020/12/08 20:43:10;;;;;;;11.73;10.50;;;21.50;39.10;;;;;;5111948;28;20569;-72
2020/12/08 20:45:36;;;;;;;12.87;11.53;;;21.50;39.20;;;;;;5110760;28;20187;-73
2020/12/08 20:48:01;;;;;;;12.50;11.30;;;21.50;39.10;;;;;;5111962;28;20195;-71
2020/12/08 20:50:28;;;;;;;11.70;10.60;;;21.40;39.10;;;;;;5112057;28;20224;-72
2020/12/08 20:52:57;;;;;;;12.53;11.40;;;21.40;39.10;;;;;;5111439;28;20183;-72
2020/12/08 20:55:23;;;;;;;12.20;11.00;;;21.40;39.10;;;;;;5111202;28;20451;-72
2020/12/08 20:57:48;;;;;;;10.93;9.83;;;21.30;39.10;;;;;;5108225;28;20427;-72
2020/12/08 21:00:14;;;;;;;15.57;13.23;;;21.30;39.10;;;;;;5086245;28;20462;-71
2020/12/08 21:02:40;;;;;;;20.40;16.10;;;21.30;39.10;;;;;;5091563;28;20172;-71
2020/12/08 21:05:07;;;;;;;20.70;16.90;;;21.30;39.10;;;;;;5091399;28;20180;-72
2020/12/08 21:07:33;;;;;;;19.27;17.27;;;21.20;39.20;;;;;;5091213;28;20199;-72
2020/12/08 21:09:59;;;;;;;23.50;19.27;;;21.20;39.10;;;;;;5090986;28;20888;-71
2020/12/08 21:12:25;;;;;;;31.27;24.17;;;21.20;39.20;;;;;;5090909;28;20191;-72
2020/12/08 21:14:50;;;;;;;32.53;24.40;;;21.20;39.20;;;;;;5091095;28;20184;-72
2020/12/08 21:17:16;;;;;;;39.77;27.37;;;21.20;39.30;;;;;;5091116;28;20413;-73
2020/12/08 21:21:11;;;;;;;42.57;27.50;;;21.10;38.60;;;;;;5148250;27;20514;-73
2020/12/08 21:23:37;;;;;;;42.73;23.83;;;21.20;42.10;;;;;;5129006;27;20560;-72
2020/12/08 21:26:02;;;;;;;32.80;19.57;;;21.30;46.70;;;;;;5128787;27;20833;-73
2020/12/08 21:28:28;;;;;;;26.87;15.73;;;21.40;47.10;;;;;;5129132;28;20605;-75
2020/12/08 21:30:54;;;;;;;28.23;15.70;;;21.50;48.20;;;;;;5127843;27;20210;-72
2020/12/08 21:33:19;;;;;;;20.33;15.47;;;21.60;47.30;;;;;;5129006;27;20167;-73
2020/12/08 21:35:45;;;;;;;20.23;13.93;;;21.70;48.00;;;;;;5128295;28;20210;-73
2020/12/08 21:38:11;;;;;;;18.30;12.87;;;21.80;47.80;;;;;;5127143;28;20640;-72
2020/12/08 21:40:37;;;;;;;17.87;13.53;;;21.90;47.90;;;;;;5128818;28;20581;-72
2020/12/08 21:43:03;;;;;;;15.40;12.70;;;21.90;47.70;;;;;;5128279;27;20411;-71
2020/12/08 21:45:29;;;;;;;16.50;11.63;;;22.00;47.50;;;;;;5128555;27;20873;-73
2020/12/08 21:47:55;;;;;;;17.70;12.50;;;22.10;47.60;;;;;;5127357;27;20407;-72
2020/12/08 21:50:22;;;;;;;14.90;11.33;;;22.20;47.30;;;;;;5128088;27;20438;-72
2020/12/08 21:52:50;;;;;;;18.50;11.53;;;22.20;47.40;;;;;;5127349;28;20458;-71
2020/12/08 21:55:18;;;;;;;16.40;11.80;;;22.30;47.30;;;;;;5128402;27;20428;-72
2020/12/08 21:57:46;;;;;;;19.60;12.17;;;22.30;47.60;;;;;;5120348;27;20884;-72
2020/12/08 22:00:14;;;;;;;17.20;11.87;;;22.30;47.30;;;;;;5108018;28;20696;-72
2020/12/08 22:02:44;;;;;;;17.10;12.00;;;22.40;46.90;;;;;;5107971;28;20435;-72
2020/12/08 22:05:10;;;;;;;17.50;12.50;;;22.40;47.10;;;;;;5107377;28;20804;-72
2020/12/08 22:07:37;;;;;;;17.70;11.90;;;22.40;47.20;;;;;;5107705;28;20899;-77
2020/12/08 22:10:05;;;;;;;14.57;11.27;;;22.50;47.20;;;;;;5106888;28;20440;-72
2020/12/08 22:12:30;;;;;;;15.60;12.20;;;22.50;47.00;;;;;;5106241;28;20420;-71
2020/12/08 22:14:56;;;;;;;18.67;12.70;;;22.50;47.40;;;;;;5107648;28;20416;-71
2020/12/08 22:17:26;;;;;;;17.33;12.30;;;22.50;47.30;;;;;;5107750;28;20172;-73
2020/12/08 22:19:52;;;;;;;18.57;13.00;;;22.60;47.10;;;;;;5106546;28;20253;-73
2020/12/08 22:22:17;;;;;;;15.23;11.90;;;22.60;47.30;;;;;;5107477;28;20416;-73
2020/12/08 22:24:43;;;;;;;13.90;11.10;;;22.60;47.70;;;;;;5107564;28;20465;-72
2020/12/08 22:27:09;;;;;;;12.00;10.63;;;22.60;47.10;;;;;;5107106;28;20198;-69
2020/12/08 22:29:34;;;;;;;14.40;11.53;;;22.60;46.80;;;;;;5107490;28;20179;-69
2020/12/08 22:32:01;;;;;;;12.50;11.20;;;22.60;47.00;;;;;;5096818;28;20169;-69
2020/12/08 22:34:26;;;;;;;13.10;11.73;;;22.60;46.90;;;;;;5093642;28;20186;-70
2020/12/08 22:36:52;;;;;;;13.90;10.83;;;22.60;46.70;;;;;;5093984;28;20409;-71
2020/12/08 22:39:18;;;;;;;13.87;10.80;;;22.70;46.80;;;;;;5093656;28;20262;-71